sensor_id;sensor_type;location;lat;lon;timestamp;pressure;altitude;pressure_sealevel;temperature
55038;BMP280;40937;53.594;10.034;2023-06-04T00:01:11;102431.41;;;14.29
55038;BMP280;40937;53.594;10.034;2023-06-04T00:03:38;102435.91;;;14.29
55038;BMP280;40937;53.594;10.034;2023-06-04T00:06:05;102434.63;;;14.38
55038;BMP280;40937;53.594;10.034;2023-06-04T00:08:34;102434.25;;;14.28
55038;BMP280;40937;53.594;10.034;2023-06-04T00:11:01;102430.59;;;14.29
55038;BMP280;40937;53.594;10.034;2023-06-04T00:13:28;102436.63;;;14.18
55038;BMP280;40937;53.594;10.034;2023-06-04T00:15:55;102433.50;;;13.89
55038;BMP280;40937;53.594;10.034;2023-06-04T00:18:23;102432.81;;;13.68
55038;BMP280;40937;53.594;10.034;2023-06-04T00:20:50;102434.28;;;13.58
55038;BMP280;40937;53.594;10.034;2023-06-04T00:23:17;102430.28;;;13.42
55038;BMP280;40937;53.594;10.034;2023-06-04T00:25:45;102428.47;;;13.36
55038;BMP280;40937;53.594;10.034;2023-06-04T00:28:15;102427.47;;;13.30
55038;BMP280;40937;53.594;10.034;2023-06-04T00:30:43;102434.22;;;13.19
55038;BMP280;40937;53.594;10.034;2023-06-04T00:33:10;102429.34;;;13.16
55038;BMP280;40937;53.594;10.034;2023-06-04T00:35:37;102432.44;;;13.13
55038;BMP280;40937;53.594;10.034;2023-06-04T00:38:04;102418.16;;;13.07
55038;BMP280;40937;53.594;10.034;2023-06-04T00:40:31;102426.34;;;12.99
55038;BMP280;40937;53.594;10.034;2023-06-04T00:43:00;102422.50;;;12.88
55038;BMP280;40937;53.594;10.034;2023-06-04T00:45:27;102421.84;;;12.86
55038;BMP280;40937;53.594;10.034;2023-06-04T00:47:57;102424.09;;;13.03
55038;BMP280;40937;53.594;10.034;2023-06-04T00:50:24;102424.25;;;13.21
55038;BMP280;40937;53.594;10.034;2023-06-04T00:52:51;102425.25;;;13.20
55038;BMP280;40937;53.594;10.034;2023-06-04T00:55:19;102427.50;;;13.23
55038;BMP280;40937;53.594;10.034;2023-06-04T00:57:46;102427.56;;;13.10
55038;BMP280;40937;53.594;10.034;2023-06-04T01:00:15;102420.22;;;12.92
55038;BMP280;40937;53.594;10.034;2023-06-04T01:02:43;102416.97;;;12.77
55038;BMP280;40937;53.594;10.034;2023-06-04T01:05:21;102423.91;;;12.64
55038;BMP280;40937;53.594;10.034;2023-06-04T01:07:52;102421.88;;;12.60
55038;BMP280;40937;53.594;10.034;2023-06-04T01:10:19;102423.53;;;12.54
55038;BMP280;40937;53.594;10.034;2023-06-04T01:12:48;102418.22;;;12.61
55038;BMP280;40937;53.594;10.034;2023-06-04T01:15:16;102417.22;;;12.55
55038;BMP280;40937;53.594;10.034;2023-06-04T01:17:47;102426.78;;;12.49
55038;BMP280;40937;53.594;10.034;2023-06-04T01:20:26;102422.28;;;12.37
55038;BMP280;40937;53.594;10.034;2023-06-04T01:23:19;102425.13;;;12.35
55038;BMP280;40937;53.594;10.034;2023-06-04T01:25:51;102429.22;;;12.31
55038;BMP280;40937;53.594;10.034;2023-06-04T01:28:19;102423.91;;;12.31
55038;BMP280;40937;53.594;10.034;2023-06-04T01:30:48;102420.63;;;12.22
55038;BMP280;40937;53.594;10.034;2023-06-04T01:33:20;102426.13;;;12.07
55038;BMP280;40937;53.594;10.034;2023-06-04T01:35:47;102424.69;;;12.12
55038;BMP280;40937;53.594;10.034;2023-06-04T01:38:16;102424.69;;;12.12
55038;BMP280;40937;53.594;10.034;2023-06-04T01:40:43;102423.88;;;12.04
55038;BMP280;40937;53.594;10.034;2023-06-04T01:43:10;102419.78;;;12.08
55038;BMP280;40937;53.594;10.034;2023-06-04T01:45:37;102418.13;;;11.94
55038;BMP280;40937;53.594;10.034;2023-06-04T01:48:06;102414.47;;;11.88
55038;BMP280;40937;53.594;10.034;2023-06-04T01:50:33;102416.88;;;11.83
55038;BMP280;40937;53.594;10.034;2023-06-04T01:53:01;102416.88;;;11.77
55038;BMP280;40937;53.594;10.034;2023-06-04T01:55:28;102420.91;;;11.73
55038;BMP280;40937;53.594;10.034;2023-06-04T01:57:59;102421.31;;;11.69
55038;BMP280;40937;53.594;10.034;2023-06-04T02:00:26;102423.09;;;11.62
55038;BMP280;40937;53.594;10.034;2023-06-04T02:02:54;102419.00;;;11.53
55038;BMP280;40937;53.594;10.034;2023-06-04T02:05:23;102420.22;;;11.50
55038;BMP280;40937;53.594;10.034;2023-06-04T02:07:51;102423.88;;;11.49
55038;BMP280;40937;53.594;10.034;2023-06-04T02:10:19;102418.38;;;11.44
55038;BMP280;40937;53.594;10.034;2023-06-04T02:12:56;102413.47;;;11.48
55038;BMP280;40937;53.594;10.034;2023-06-04T02:15:25;102409.47;;;11.59
55038;BMP280;40937;53.594;10.034;2023-06-04T02:17:54;102413.94;;;11.52
55038;BMP280;40937;53.594;10.034;2023-06-04T02:20:25;102413.09;;;11.44
55038;BMP280;40937;53.594;10.034;2023-06-04T02:22:53;102416.72;;;11.43
55038;BMP280;40937;53.594;10.034;2023-06-04T02:25:21;102426.88;;;11.40
55038;BMP280;40937;53.594;10.034;2023-06-04T02:27:49;102427.03;;;11.31
55038;BMP280;40937;53.594;10.034;2023-06-04T02:30:16;102427.66;;;11.34
55038;BMP280;40937;53.594;10.034;2023-06-04T02:32:43;102423.59;;;11.38
55038;BMP280;40937;53.594;10.034;2023-06-04T02:35:11;102423.66;;;11.44
55038;BMP280;40937;53.594;10.034;2023-06-04T02:37:39;102421.59;;;11.40
55038;BMP280;40937;53.594;10.034;2023-06-04T02:40:08;102413.91;;;11.45
55038;BMP280;40937;53.594;10.034;2023-06-04T02:42:35;102415.06;;;11.36
55038;BMP280;40937;53.594;10.034;2023-06-04T02:45:03;102415.25;;;11.34
55038;BMP280;40937;53.594;10.034;2023-06-04T02:47:30;102414.59;;;11.25
55038;BMP280;40937;53.594;10.034;2023-06-04T02:49:57;102421.88;;;11.23
55038;BMP280;40937;53.594;10.034;2023-06-04T02:52:24;102420.25;;;11.22
55038;BMP280;40937;53.594;10.034;2023-06-04T02:54:54;102417.88;;;11.27
55038;BMP280;40937;53.594;10.034;2023-06-04T02:57:23;102419.03;;;11.18
55038;BMP280;40937;53.594;10.034;2023-06-04T02:59:50;102419.03;;;11.18
55038;BMP280;40937;53.594;10.034;2023-06-04T03:02:17;102419.41;;;11.15
55038;BMP280;40937;53.594;10.034;2023-06-04T03:04:44;102413.72;;;11.11
55038;BMP280;40937;53.594;10.034;2023-06-04T03:07:16;102418.81;;;11.13
55038;BMP280;40937;53.594;10.034;2023-06-04T03:09:46;102414.53;;;11.12
55038;BMP280;40937;53.594;10.034;2023-06-04T03:12:18;102412.25;;;11.09
55038;BMP280;40937;53.594;10.034;2023-06-04T03:14:45;102406.75;;;11.04
55038;BMP280;40937;53.594;10.034;2023-06-04T03:17:12;102414.06;;;11.02
55038;BMP280;40937;53.594;10.034;2023-06-04T03:19:41;102406.31;;;11.00
55038;BMP280;40937;53.594;10.034;2023-06-04T03:22:09;102412.41;;;11.01
55038;BMP280;40937;53.594;10.034;2023-06-04T03:24:39;102405.81;;;10.90
55038;BMP280;40937;53.594;10.034;2023-06-04T03:27:08;102405.44;;;10.93
55038;BMP280;40937;53.594;10.034;2023-06-04T03:29:38;102402.38;;;10.89
55038;BMP280;40937;53.594;10.034;2023-06-04T03:32:07;102408.09;;;10.93
55038;BMP280;40937;53.594;10.034;2023-06-04T03:34:36;102405.47;;;11.00
55038;BMP280;40937;53.594;10.034;2023-06-04T03:37:03;102402.75;;;11.15
55038;BMP280;40937;53.594;10.034;2023-06-04T03:39:32;102412.34;;;11.22
55038;BMP280;40937;53.594;10.034;2023-06-04T03:42:01;102406.81;;;11.17
55038;BMP280;40937;53.594;10.034;2023-06-04T03:44:29;102408.84;;;11.15
55038;BMP280;40937;53.594;10.034;2023-06-04T03:46:58;102409.25;;;11.12
55038;BMP280;40937;53.594;10.034;2023-06-04T03:49:26;102406.34;;;11.07
55038;BMP280;40937;53.594;10.034;2023-06-04T03:51:54;102405.47;;;11.00
55038;BMP280;40937;53.594;10.034;2023-06-04T03:54:22;102403.88;;;10.99
55038;BMP280;40937;53.594;10.034;2023-06-04T03:56:50;102412.81;;;10.98
55038;BMP280;40937;53.594;10.034;2023-06-04T03:59:20;102403.25;;;10.97
55038;BMP280;40937;53.594;10.034;2023-06-04T04:01:47;102404.25;;;10.96
55038;BMP280;40937;53.594;10.034;2023-06-04T04:04:16;102400.97;;;10.94
55038;BMP280;40937;53.594;10.034;2023-06-04T04:06:44;102416.03;;;11.00
55038;BMP280;40937;53.594;10.034;2023-06-04T04:09:13;102408.53;;;10.97
55038;BMP280;40937;53.594;10.034;2023-06-04T04:11:41;102423.19;;;11.06
55038;BMP280;40937;53.594;10.034;2023-06-04T04:14:08;102424.69;;;11.15
55038;BMP280;40937;53.594;10.034;2023-06-04T04:16:36;102427.50;;;11.14
55038;BMP280;40937;53.594;10.034;2023-06-04T04:19:04;102425.94;;;11.19
55038;BMP280;40937;53.594;10.034;2023-06-04T04:21:36;102428.44;;;11.27
55038;BMP280;40937;53.594;10.034;2023-06-04T04:24:04;102422.00;;;11.37
55038;BMP280;40937;53.594;10.034;2023-06-04T04:26:33;102433.56;;;11.36
55038;BMP280;40937;53.594;10.034;2023-06-04T04:29:00;102428.94;;;11.44
55038;BMP280;40937;53.594;10.034;2023-06-04T04:31:30;102421.59;;;11.46
55038;BMP280;40937;53.594;10.034;2023-06-04T04:34:01;102428.16;;;11.57
55038;BMP280;40937;53.594;10.034;2023-06-04T04:36:34;102427.97;;;11.59
55038;BMP280;40937;53.594;10.034;2023-06-04T04:39:04;102427.38;;;11.63
55038;BMP280;40937;53.594;10.034;2023-06-04T04:41:33;102428.66;;;11.67
55038;BMP280;40937;53.594;10.034;2023-06-04T04:44:03;102427.19;;;11.71
55038;BMP280;40937;53.594;10.034;2023-06-04T04:46:30;102416.50;;;11.86
55038;BMP280;40937;53.594;10.034;2023-06-04T04:48:58;102423.81;;;11.91
55038;BMP280;40937;53.594;10.034;2023-06-04T04:51:25;102426.69;;;11.96
55038;BMP280;40937;53.594;10.034;2023-06-04T04:53:53;102427.91;;;11.94
55038;BMP280;40937;53.594;10.034;2023-06-04T04:56:23;102439.50;;;11.99
55038;BMP280;40937;53.594;10.034;2023-06-04T04:58:52;102431.56;;;11.99
55038;BMP280;40937;53.594;10.034;2023-06-04T05:01:20;102434.47;;;12.04
55038;BMP280;40937;53.594;10.034;2023-06-04T05:03:48;102432.03;;;12.09
55038;BMP280;40937;53.594;10.034;2023-06-04T05:06:16;102423.91;;;12.11
55038;BMP280;40937;53.594;10.034;2023-06-04T05:08:45;102420.81;;;12.21
55038;BMP280;40937;53.594;10.034;2023-06-04T05:11:14;102428.41;;;12.37
55038;BMP280;40937;53.594;10.034;2023-06-04T05:13:43;102426.38;;;12.53
55038;BMP280;40937;53.594;10.034;2023-06-04T05:16:12;102428.00;;;12.54
55038;BMP280;40937;53.594;10.034;2023-06-04T05:18:41;102432.47;;;12.60
55038;BMP280;40937;53.594;10.034;2023-06-04T05:21:12;102425.16;;;12.68
55038;BMP280;40937;53.594;10.034;2023-06-04T05:23:46;102426.75;;;12.69
55038;BMP280;40937;53.594;10.034;2023-06-04T05:26:15;102430.84;;;12.72
55038;BMP280;40937;53.594;10.034;2023-06-04T05:28:45;102435.75;;;12.75
55038;BMP280;40937;53.594;10.034;2023-06-04T05:31:14;102434.50;;;12.84
55038;BMP280;40937;53.594;10.034;2023-06-04T05:33:41;102433.47;;;12.92
55038;BMP280;40937;53.594;10.034;2023-06-04T05:36:13;102438.16;;;12.97
55038;BMP280;40937;53.594;10.034;2023-06-04T05:38:48;102436.91;;;13.06
55038;BMP280;40937;53.594;10.034;2023-06-04T05:41:24;102445.03;;;13.11
55038;BMP280;40937;53.594;10.034;2023-06-04T05:43:53;102439.94;;;13.16
55038;BMP280;40937;53.594;10.034;2023-06-04T05:46:21;102438.31;;;13.22
55038;BMP280;40937;53.594;10.034;2023-06-04T05:48:48;102438.91;;;13.24
55038;BMP280;40937;53.594;10.034;2023-06-04T05:51:19;102438.69;;;13.32
55038;BMP280;40937;53.594;10.034;2023-06-04T05:53:47;102440.94;;;13.35
55038;BMP280;40937;53.594;10.034;2023-06-04T05:56:15;102435.16;;;13.45
55038;BMP280;40937;53.594;10.034;2023-06-04T05:58:43;102442.88;;;13.53
55038;BMP280;40937;53.594;10.034;2023-06-04T06:01:13;102446.94;;;13.62
55038;BMP280;40937;53.594;10.034;2023-06-04T06:03:42;102444.69;;;13.66
55038;BMP280;40937;53.594;10.034;2023-06-04T06:06:09;102446.44;;;13.72
55038;BMP280;40937;53.594;10.034;2023-06-04T06:08:38;102450.53;;;13.75
55038;BMP280;40937;53.594;10.034;2023-06-04T06:11:06;102446.19;;;13.87
55038;BMP280;40937;53.594;10.034;2023-06-04T06:13:33;102449.19;;;13.97
55038;BMP280;40937;53.594;10.034;2023-06-04T06:16:01;102449.97;;;14.04
55038;BMP280;40937;53.594;10.034;2023-06-04T06:18:30;102449.88;;;14.18
55038;BMP280;40937;53.594;10.034;2023-06-04T06:21:00;102458.59;;;14.25
55038;BMP280;40937;53.594;10.034;2023-06-04T06:23:28;102455.28;;;14.29
55038;BMP280;40937;53.594;10.034;2023-06-04T06:25:56;102455.47;;;14.35
55038;BMP280;40937;53.594;10.034;2023-06-04T06:28:28;102451.53;;;14.44
55038;BMP280;40937;53.594;10.034;2023-06-04T06:30:56;102458.41;;;14.51
55038;BMP280;40937;53.594;10.034;2023-06-04T06:33:23;102455.13;;;14.56
55038;BMP280;40937;53.594;10.034;2023-06-04T06:35:53;102456.50;;;14.59
55038;BMP280;40937;53.594;10.034;2023-06-04T06:38:20;102455.47;;;14.60
55038;BMP280;40937;53.594;10.034;2023-06-04T06:40:47;102458.50;;;14.63
55038;BMP280;40937;53.594;10.034;2023-06-04T06:43:15;102463.16;;;14.68
55038;BMP280;40937;53.594;10.034;2023-06-04T06:45:42;102460.00;;;14.78
55038;BMP280;40937;53.594;10.034;2023-06-04T06:48:09;102460.38;;;14.81
55038;BMP280;40937;53.594;10.034;2023-06-04T06:50:36;102461.94;;;14.89
55038;BMP280;40937;53.594;10.034;2023-06-04T06:53:05;102456.34;;;14.97
55038;BMP280;40937;53.594;10.034;2023-06-04T06:55:32;102462.19;;;15.06
55038;BMP280;40937;53.594;10.034;2023-06-04T06:57:59;102460.03;;;15.15
55038;BMP280;40937;53.594;10.034;2023-06-04T07:00:27;102455.09;;;15.18
55038;BMP280;40937;53.594;10.034;2023-06-04T07:02:54;102465.94;;;15.17
55038;BMP280;40937;53.594;10.034;2023-06-04T07:05:21;102467.34;;;15.19
55038;BMP280;40937;53.594;10.034;2023-06-04T07:07:48;102469.56;;;15.22
55038;BMP280;40937;53.594;10.034;2023-06-04T07:10:17;102463.13;;;15.30
55038;BMP280;40937;53.594;10.034;2023-06-04T07:12:44;102465.09;;;15.34
55038;BMP280;40937;53.594;10.034;2023-06-04T07:15:11;102467.47;;;15.43
55038;BMP280;40937;53.594;10.034;2023-06-04T07:17:39;102466.56;;;15.49
55038;BMP280;40937;53.594;10.034;2023-06-04T07:20:07;102465.84;;;15.60
55038;BMP280;40937;53.594;10.034;2023-06-04T07:22:35;102464.31;;;15.64
55038;BMP280;40937;53.594;10.034;2023-06-04T07:25:03;102467.94;;;15.70
55038;BMP280;40937;53.594;10.034;2023-06-04T07:27:31;102462.63;;;15.70
55038;BMP280;40937;53.594;10.034;2023-06-04T07:29:58;102465.19;;;15.77
55038;BMP280;40937;53.594;10.034;2023-06-04T07:32:26;102457.47;;;15.87
55038;BMP280;40937;53.594;10.034;2023-06-04T07:34:53;102461.63;;;15.83
55038;BMP280;40937;53.594;10.034;2023-06-04T07:37:20;102455.84;;;15.86
55038;BMP280;40937;53.594;10.034;2023-06-04T07:39:47;102456.91;;;15.97
55038;BMP280;40937;53.594;10.034;2023-06-04T07:42:15;102460.53;;;16.02
55038;BMP280;40937;53.594;10.034;2023-06-04T07:44:43;102454.28;;;16.08
55038;BMP280;40937;53.594;10.034;2023-06-04T07:47:11;102454.97;;;16.15
55038;BMP280;40937;53.594;10.034;2023-06-04T07:49:38;102453.38;;;16.14
55038;BMP280;40937;53.594;10.034;2023-06-04T07:52:05;102445.84;;;16.23
55038;BMP280;40937;53.594;10.034;2023-06-04T07:54:33;102443.44;;;16.33
55038;BMP280;40937;53.594;10.034;2023-06-04T07:57:00;102448.53;;;16.35
55038;BMP280;40937;53.594;10.034;2023-06-04T07:59:28;102449.31;;;16.35
55038;BMP280;40937;53.594;10.034;2023-06-04T08:01:57;102449.22;;;16.42
55038;BMP280;40937;53.594;10.034;2023-06-04T08:04:24;102446.69;;;16.47
55038;BMP280;40937;53.594;10.034;2023-06-04T08:06:52;102453.63;;;16.48
55038;BMP280;40937;53.594;10.034;2023-06-04T08:09:21;102449.44;;;16.52
55038;BMP280;40937;53.594;10.034;2023-06-04T08:11:48;102445.63;;;16.60
55038;BMP280;40937;53.594;10.034;2023-06-04T08:14:16;102449.25;;;16.66
55038;BMP280;40937;53.594;10.034;2023-06-04T08:16:45;102450.50;;;16.75
55038;BMP280;40937;53.594;10.034;2023-06-04T08:19:14;102446.53;;;16.89
55038;BMP280;40937;53.594;10.034;2023-06-04T08:21:41;102450.78;;;16.90
55038;BMP280;40937;53.594;10.034;2023-06-04T08:24:10;102454.06;;;16.92
55038;BMP280;40937;53.594;10.034;2023-06-04T08:26:37;102456.72;;;16.92
55038;BMP280;40937;53.594;10.034;2023-06-04T08:29:05;102458.44;;;16.98
55038;BMP280;40937;53.594;10.034;2023-06-04T08:31:32;102450.53;;;17.04
55038;BMP280;40937;53.594;10.034;2023-06-04T08:33:59;102451.94;;;17.06
55038;BMP280;40937;53.594;10.034;2023-06-04T08:36:28;102450.75;;;17.14
55038;BMP280;40937;53.594;10.034;2023-06-04T08:38:58;102453.03;;;17.22
55038;BMP280;40937;53.594;10.034;2023-06-04T08:41:28;102458.00;;;17.30
55038;BMP280;40937;53.594;10.034;2023-06-04T08:43:57;102461.13;;;17.27
55038;BMP280;40937;53.594;10.034;2023-06-04T08:46:28;102458.69;;;17.37
55038;BMP280;40937;53.594;10.034;2023-06-04T08:48:56;102449.56;;;17.50
55038;BMP280;40937;53.594;10.034;2023-06-04T08:51:28;102454.75;;;17.57
55038;BMP280;40937;53.594;10.034;2023-06-04T08:53:59;102450.69;;;17.54
55038;BMP280;40937;53.594;10.034;2023-06-04T08:56:36;102453.13;;;17.56
55038;BMP280;40937;53.594;10.034;2023-06-04T08:59:05;102448.91;;;17.60
55038;BMP280;40937;53.594;10.034;2023-06-04T09:01:33;102456.38;;;17.58
55038;BMP280;40937;53.594;10.034;2023-06-04T09:04:05;102459.59;;;17.60
55038;BMP280;40937;53.594;10.034;2023-06-04T09:06:35;102462.44;;;17.70
55038;BMP280;40937;53.594;10.034;2023-06-04T09:09:09;102464.31;;;17.70
55038;BMP280;40937;53.594;10.034;2023-06-04T09:11:44;102461.41;;;17.71
55038;BMP280;40937;53.594;10.034;2023-06-04T09:14:14;102466.75;;;17.71
55038;BMP280;40937;53.594;10.034;2023-06-04T09:16:44;102462.91;;;17.79
55038;BMP280;40937;53.594;10.034;2023-06-04T09:19:11;102469.69;;;17.87
55038;BMP280;40937;53.594;10.034;2023-06-04T09:21:55;102468.06;;;17.86
55038;BMP280;40937;53.594;10.034;2023-06-04T09:24:24;102470.00;;;17.90
55038;BMP280;40937;53.594;10.034;2023-06-04T09:26:51;102464.97;;;17.94
55038;BMP280;40937;53.594;10.034;2023-06-04T09:29:18;102467.59;;;18.06
55038;BMP280;40937;53.594;10.034;2023-06-04T09:31:46;102462.09;;;18.12
55038;BMP280;40937;53.594;10.034;2023-06-04T09:34:14;102469.66;;;18.20
55038;BMP280;40937;53.594;10.034;2023-06-04T09:36:41;102470.63;;;18.31
55038;BMP280;40937;53.594;10.034;2023-06-04T09:39:16;102470.47;;;18.38
55038;BMP280;40937;53.594;10.034;2023-06-04T09:41:44;102472.56;;;18.36
55038;BMP280;40937;53.594;10.034;2023-06-04T09:44:14;102471.59;;;18.42
55038;BMP280;40937;53.594;10.034;2023-06-04T09:46:41;102468.81;;;18.54
55038;BMP280;40937;53.594;10.034;2023-06-04T09:49:08;102459.97;;;18.53
55038;BMP280;40937;53.594;10.034;2023-06-04T09:51:46;102475.28;;;18.58
55038;BMP280;40937;53.594;10.034;2023-06-04T09:54:13;102465.53;;;18.69
55038;BMP280;40937;53.594;10.034;2023-06-04T09:56:42;102465.16;;;18.82
55038;BMP280;40937;53.594;10.034;2023-06-04T09:59:14;102454.91;;;18.96
55038;BMP280;40937;53.594;10.034;2023-06-04T10:01:42;102464.53;;;18.97
55038;BMP280;40937;53.594;10.034;2023-06-04T10:04:09;102454.22;;;19.05
55038;BMP280;40937;53.594;10.034;2023-06-04T10:06:40;102466.63;;;19.17
55038;BMP280;40937;53.594;10.034;2023-06-04T10:09:09;102461.59;;;19.20
55038;BMP280;40937;53.594;10.034;2023-06-04T10:11:40;102465.28;;;19.14
55038;BMP280;40937;53.594;10.034;2023-06-04T10:14:14;102461.78;;;19.14
55038;BMP280;40937;53.594;10.034;2023-06-04T10:16:43;102461.66;;;19.25
55038;BMP280;40937;53.594;10.034;2023-06-04T10:19:13;102464.09;;;19.32
55038;BMP280;40937;53.594;10.034;2023-06-04T10:21:42;102459.09;;;19.36
55038;BMP280;40937;53.594;10.034;2023-06-04T10:24:09;102459.19;;;19.51
55038;BMP280;40937;53.594;10.034;2023-06-04T10:26:37;102457.44;;;19.62
55038;BMP280;40937;53.594;10.034;2023-06-04T10:29:06;102461.84;;;19.78
55038;BMP280;40937;53.594;10.034;2023-06-04T10:31:37;102450.13;;;19.84
55038;BMP280;40937;53.594;10.034;2023-06-04T10:34:04;102464.03;;;19.86
55038;BMP280;40937;53.594;10.034;2023-06-04T10:36:42;102451.66;;;19.75
55038;BMP280;40937;53.594;10.034;2023-06-04T10:39:10;102462.66;;;19.79
55038;BMP280;40937;53.594;10.034;2023-06-04T10:41:37;102458.03;;;19.69
55038;BMP280;40937;53.594;10.034;2023-06-04T10:44:05;102464.00;;;19.76
55038;BMP280;40937;53.594;10.034;2023-06-04T10:46:40;102458.69;;;19.86
55038;BMP280;40937;53.594;10.034;2023-06-04T10:49:09;102459.53;;;19.87
55038;BMP280;40937;53.594;10.034;2023-06-04T10:51:37;102455.75;;;19.88
55038;BMP280;40937;53.594;10.034;2023-06-04T10:54:04;102458.78;;;19.97
55038;BMP280;40937;53.594;10.034;2023-06-04T10:56:35;102463.03;;;19.92
55038;BMP280;40937;53.594;10.034;2023-06-04T10:59:12;102463.13;;;20.03
55038;BMP280;40937;53.594;10.034;2023-06-04T11:01:42;102471.16;;;20.08
55038;BMP280;40937;53.594;10.034;2023-06-04T11:04:18;102468.97;;;20.00
55038;BMP280;40937;53.594;10.034;2023-06-04T11:06:47;102471.66;;;20.00
55038;BMP280;40937;53.594;10.034;2023-06-04T11:09:14;102464.69;;;20.04
55038;BMP280;40937;53.594;10.034;2023-06-04T11:11:44;102465.84;;;20.13
55038;BMP280;40937;53.594;10.034;2023-06-04T11:14:22;102462.44;;;20.23
55038;BMP280;40937;53.594;10.034;2023-06-04T11:16:51;102457.34;;;20.26
55038;BMP280;40937;53.594;10.034;2023-06-04T11:19:18;102461.59;;;20.22
55038;BMP280;40937;53.594;10.034;2023-06-04T11:21:48;102454.94;;;20.25
55038;BMP280;40937;53.594;10.034;2023-06-04T11:24:16;102457.91;;;20.28
55038;BMP280;40937;53.594;10.034;2023-06-04T11:26:44;102451.53;;;20.40
55038;BMP280;40937;53.594;10.034;2023-06-04T11:29:11;102447.31;;;20.54
55038;BMP280;40937;53.594;10.034;2023-06-04T11:31:42;102450.03;;;20.69
55038;BMP280;40937;53.594;10.034;2023-06-04T11:34:22;102441.47;;;20.77
55038;BMP280;40937;53.594;10.034;2023-06-04T11:36:49;102448.19;;;20.85
55038;BMP280;40937;53.594;10.034;2023-06-04T11:39:19;102436.16;;;20.98
55038;BMP280;40937;53.594;10.034;2023-06-04T11:41:47;102439.41;;;21.05
55038;BMP280;40937;53.594;10.034;2023-06-04T11:44:18;102439.38;;;21.10
55038;BMP280;40937;53.594;10.034;2023-06-04T11:46:45;102434.59;;;21.17
55038;BMP280;40937;53.594;10.034;2023-06-04T11:49:16;102439.16;;;21.22
55038;BMP280;40937;53.594;10.034;2023-06-04T11:51:46;102437.00;;;21.29
55038;BMP280;40937;53.594;10.034;2023-06-04T11:54:13;102441.56;;;21.34
55038;BMP280;40937;53.594;10.034;2023-06-04T11:56:41;102447.75;;;21.39
55038;BMP280;40937;53.594;10.034;2023-06-04T11:59:10;102448.53;;;21.40
55038;BMP280;40937;53.594;10.034;2023-06-04T12:01:39;102438.88;;;21.44
55038;BMP280;40937;53.594;10.034;2023-06-04T12:04:11;102444.81;;;21.51
55038;BMP280;40937;53.594;10.034;2023-06-04T12:06:50;102446.91;;;21.64
55038;BMP280;40937;53.594;10.034;2023-06-04T12:09:20;102443.97;;;21.66
55038;BMP280;40937;53.594;10.034;2023-06-04T12:11:47;102447.44;;;21.77
55038;BMP280;40937;53.594;10.034;2023-06-04T12:14:16;102442.09;;;21.87
55038;BMP280;40937;53.594;10.034;2023-06-04T12:16:44;102444.22;;;21.95
55038;BMP280;40937;53.594;10.034;2023-06-04T12:19:20;102440.94;;;22.03
55038;BMP280;40937;53.594;10.034;2023-06-04T12:21:59;102437.41;;;22.13
55038;BMP280;40937;53.594;10.034;2023-06-04T12:24:27;102431.22;;;22.18
55038;BMP280;40937;53.594;10.034;2023-06-04T12:27:01;102445.16;;;22.30
55038;BMP280;40937;53.594;10.034;2023-06-04T12:29:29;102442.16;;;22.42
55038;BMP280;40937;53.594;10.034;2023-06-04T12:32:02;102439.72;;;22.50
55038;BMP280;40937;53.594;10.034;2023-06-04T12:34:29;102434.31;;;22.50
55038;BMP280;40937;53.594;10.034;2023-06-04T12:36:58;102422.91;;;22.64
55038;BMP280;40937;53.594;10.034;2023-06-04T12:39:25;102422.91;;;22.64
55038;BMP280;40937;53.594;10.034;2023-06-04T12:41:55;102428.84;;;22.71
55038;BMP280;40937;53.594;10.034;2023-06-04T12:44:23;102426.31;;;22.80
55038;BMP280;40937;53.594;10.034;2023-06-04T12:49:17;102434.28;;;22.95
55038;BMP280;40937;53.594;10.034;2023-06-04T12:51:44;102428.31;;;23.03
55038;BMP280;40937;53.594;10.034;2023-06-04T12:54:13;102426.59;;;23.17
55038;BMP280;40937;53.594;10.034;2023-06-04T12:56:40;102427.34;;;23.23
55038;BMP280;40937;53.594;10.034;2023-06-04T12:59:08;102425.94;;;23.31
55038;BMP280;40937;53.594;10.034;2023-06-04T13:01:35;102428.31;;;23.32
55038;BMP280;40937;53.594;10.034;2023-06-04T13:04:03;102428.75;;;23.50
55038;BMP280;40937;53.594;10.034;2023-06-04T13:06:30;102427.25;;;23.62
55038;BMP280;40937;53.594;10.034;2023-06-04T13:08:57;102431.19;;;23.70
55038;BMP280;40937;53.594;10.034;2023-06-04T13:11:26;102432.09;;;23.66
55038;BMP280;40937;53.594;10.034;2023-06-04T13:13:53;102427.13;;;23.73
55038;BMP280;40937;53.594;10.034;2023-06-04T13:16:20;102424.13;;;23.79
55038;BMP280;40937;53.594;10.034;2023-06-04T13:18:47;102422.97;;;23.86
55038;BMP280;40937;53.594;10.034;2023-06-04T13:21:15;102428.75;;;23.98
55038;BMP280;40937;53.594;10.034;2023-06-04T13:23:42;102416.97;;;24.13
55038;BMP280;40937;53.594;10.034;2023-06-04T13:26:09;102416.09;;;24.17
55038;BMP280;40937;53.594;10.034;2023-06-04T13:28:38;102419.75;;;24.26
55038;BMP280;40937;53.594;10.034;2023-06-04T13:31:05;102425.06;;;24.32
55038;BMP280;40937;53.594;10.034;2023-06-04T13:33:33;102420.41;;;24.37
55038;BMP280;40937;53.594;10.034;2023-06-04T13:36:02;102413.69;;;24.54
55038;BMP280;40937;53.594;10.034;2023-06-04T13:38:30;102418.84;;;24.69
55038;BMP280;40937;53.594;10.034;2023-06-04T13:40:57;102412.84;;;24.72
55038;BMP280;40937;53.594;10.034;2023-06-04T13:43:25;102408.97;;;24.64
55038;BMP280;40937;53.594;10.034;2023-06-04T13:45:53;102413.22;;;24.65
55038;BMP280;40937;53.594;10.034;2023-06-04T13:48:21;102404.91;;;24.81
55038;BMP280;40937;53.594;10.034;2023-06-04T13:50:48;102405.38;;;24.83
55038;BMP280;40937;53.594;10.034;2023-06-04T13:53:15;102401.63;;;24.84
55038;BMP280;40937;53.594;10.034;2023-06-04T13:55:42;102409.03;;;24.92